Latest Weather Observations for Camooweal

IDQ60801

Issued at 6:22 am EST Tuesday 7 July 2020 (issued every 10 minutes, with the page automatically refreshed every 10 minutes)

About weather observations | Map of weather stations | Latest weather observations for QLD | Other Formats
Station Details ID: 037010 Name: CAMOOWEAL TOWNSHIP Lat: -19.92 Lon: 138.12 Height: 231.2 m
Data from the previous 72 hours. | See also: Recent months at Camooweal
Date/Time
EST
Temp
°C
App
Temp
°C
Dew
Point
°C
Rel
Hum
%
Delta-T
°C
Wind Press
QNH
hPa
Press
MSL
hPa
Rain since
9am
mm
Dir  Spd
km/h
Gust
km/h
Spd
kts
Gust
kts
07/06:00am 7.9 3.3 -0.8 54 3.4 S 13 15 7 8 1021.0 1020.6 0.0
07/05:30am 7.6 3.0 -1.1 54 3.4 S 13 15 7 8 1021.0 1020.6 0.0
07/05:00am 7.1 2.8 -1.8 53 3.4 S 11 13 6 7 1021.0 1020.6 0.0
07/04:30am 7.6 3.2 -2.1 50 3.7 SSW 11 13 6 7 1021.1 1020.7 0.0
07/04:00am 8.6 4.2 -2.1 47 4.1 S 11 13 6 7 1021.1 1020.7 0.0
07/03:30am 10.1 5.4 -1.9 43 4.7 S 13 15 7 8 1021.3 1020.9 0.0
07/03:00am 11.1 6.0 -2.0 40 5.1 S 15 19 8 10 1021.3 1020.9 0.0
07/02:30am 11.7 6.2 -2.1 38 5.5 S 17 20 9 11 1021.3 1020.9 0.0
07/02:00am 11.6 6.4 -2.9 36 5.6 S 15 19 8 10 1021.7 1021.3 0.0
07/01:30am 12.1 6.5 -3.3 34 5.9 SSE 17 20 9 11 1021.9 1021.5 0.0
07/01:00am 12.7 7.1 -3.1 33 6.1 S 17 22 9 12 1022.2 1021.8 0.0
07/12:30am 13.2 7.2 -3.1 32 6.4 SSE 19 24 10 13 1022.1 1021.7 0.0
07/12:00am 13.6 8.0 -3.2 31 6.6 SSE 17 22 9 12 1022.2 1021.8 0.0
 
Date/Time
EST
Temp
°C
App
Temp
°C
Dew
Point
°C
Rel
Hum
%
Delta-T
°C
Wind Press
QNH
hPa
Press
MSL
hPa
Rain since
9am
mm
Dir  Spd
km/h
Gust
km/h
Spd
kts
Gust
kts
06/11:30pm 14.2 7.9 -3.6 29 7.0 SSE 20 26 11 14 1022.5 1022.1 0.0
06/11:00pm 14.8 8.7 -3.5 28 7.2 SSE 19 28 10 15 1022.7 1022.3 0.0
06/10:30pm 15.1 9.4 -3.7 27 7.4 S 17 22 9 12 1022.7 1022.3 0.0
06/10:00pm 15.4 9.7 -4.0 26 7.6 S 17 24 9 13 1022.6 1022.2 0.0
06/09:30pm 16.3 10.2 -4.3 24 8.1 S 19 24 10 13 1022.1 1021.7 0.0
06/09:00pm 17.5 10.8 -4.4 22 8.7 S 22 28 12 15 1022.2 1021.8 0.0
06/08:30pm 17.3 11.1 -4.6 22 8.7 S 19 24 10 13 1022.1 1021.7 0.0
06/08:00pm 17.8 12.0 -4.8 21 8.9 S 17 20 9 11 1021.8 1021.4 0.0
06/07:30pm 18.5 12.3 -4.9 20 9.3 S 19 24 10 13 1021.4 1021.0 0.0
06/07:00pm 19.7 13.5 -5.3 18 10.0 S 19 26 10 14 1021.0 1020.6 0.0
06/06:30pm 20.7 14.3 -5.2 17 10.5 S 20 24 11 13 1020.9 1020.4 0.0
06/06:00pm 21.8 15.0 -5.1 16 11.0 S 22 30 12 16 1020.7 1020.2 0.0
06/05:30pm 22.8 16.0 -5.2 15 11.6 S 22 30 12 16 1020.5 1020.0 0.0
06/05:00pm 23.2 16.8 -4.8 15 11.7 S 20 30 11 16 1020.3 1019.8 0.0
06/04:30pm 23.6 17.0 -3.7 16 11.7 SSE 22 30 12 16 1020.2 1019.7 0.0
06/04:00pm 23.6 17.3 -3.7 16 11.7 SSE 20 26 11 14 1020.3 1019.8 0.0
06/03:30pm 23.0 16.4 -3.3 17 11.3 S 22 32 12 17 1020.2 1019.7 0.0
06/03:00pm 23.0 17.0 -3.3 17 11.3 S 19 28 10 15 1020.4 1019.9 0.0
06/02:30pm 22.6 16.6 -2.9 18 11.0 S 19 28 10 15 1020.8 1020.3 0.0
06/02:00pm 21.8 16.6 -2.8 19 10.5 SSE 15 28 8 15 1021.3 1020.9 0.0
06/01:30pm 21.4 15.3 -2.5 20 10.3 SSE 20 33 11 18 1021.2 1020.8 0.0
06/01:00pm 21.1 14.6 -2.7 20 10.1 SSE 22 32 12 17 1021.5 1021.1 0.0
06/12:30pm 20.4 14.3 -2.6 21 9.8 SSE 20 32 11 17 1022.5 1022.1 0.0
06/12:00pm 20.0 13.9 -2.3 22 9.5 SSE 20 28 11 15 1023.1 1022.7 0.0
06/11:30am 19.0 13.1 -2.0 24 8.9 SSE 19 28 10 15 1023.7 1023.3 0.0
06/11:00am 17.8 12.2 -3.0 24 8.5 SE 17 30 9 16 1024.0 1023.6 0.0
06/10:30am 17.2 11.3 -2.4 26 8.1 SE 19 26 10 14 1023.9 1023.5 0.0
06/10:00am 15.7 9.6 -2.3 29 7.3 SSE 20 28 11 15 1023.8 1023.4 0.0
06/09:30am 13.1 7.2 -2.0 35 6.1 SSE 19 22 10 12 1023.7 1023.3 0.0
06/09:00am 11.4 5.4 -1.7 40 5.2 SSE 20 26 11 14 1023.5 1023.1 0.0
06/08:30am 10.0 4.2 -1.4 45 4.5 S 19 26 10 14 1023.2 1022.8 0.0
06/08:00am 8.7 4.1 -1.4 49 3.9 S 13 19 7 10 1023.0 1022.6 0.0
06/07:30am 6.2 1.5 -1.9 56 3.0 SSW 13 15 7 8 1022.6 1022.2 0.0
06/07:00am 6.1 1.7 -2.2 55 3.1 SSW 11 13 6 7 1022.4 1022.0 0.0
06/06:30am 7.5 3.2 -2.0 51 3.6 SSW 11 13 6 7 1022.3 1021.9 0.0
06/06:00am 8.0 3.3 -1.8 50 3.7 SSW 13 15 7 8 1022.0 1021.6 0.0
06/05:30am 8.8 3.7 -1.6 48 4.0 S 15 19 8 10 1021.9 1021.5 0.0
06/05:00am 8.7 3.7 -1.4 49 3.9 SSW 15 17 8 9 1021.7 1021.3 0.0
06/04:30am 8.5 3.8 -1.6 49 3.9 S 13 15 7 8 1021.9 1021.5 0.0
06/04:00am 8.1 3.4 -1.7 50 3.7 S 13 15 7 8 1021.9 1021.5 0.0
06/03:30am 7.7 3.0 -2.0 50 3.7 SSW 13 13 7 7 1022.0 1021.6 0.0
06/03:00am 7.9 3.9 -1.9 50 3.7 SSW 9 11 5 6 1022.3 1021.9 0.0
06/02:30am 9.1 4.4 -1.9 46 4.2 S 13 17 7 9 1022.2 1021.8 0.0
06/02:00am 9.4 4.6 -2.2 44 4.4 S 13 15 7 8 1022.6 1022.2 0.0
06/01:30am 10.3 5.9 -2.4 41 4.9 S 11 11 6 6 1022.8 1022.4 0.0
06/01:00am 11.1 7.1 -2.3 39 5.2 S 9 13 5 7 1022.8 1022.4 0.0
06/12:30am 12.3 7.5 -2.3 36 5.8 S 13 15 7 8 1022.8 1022.4 0.0
06/12:00am 13.5 8.3 -2.4 33 6.3 SSE 15 17 8 9 1022.9 1022.5 0.0
 
Date/Time
EST
Temp
°C
App
Temp
°C
Dew
Point
°C
Rel
Hum
%
Delta-T
°C
Wind Press
QNH
hPa
Press
MSL
hPa
Rain since
9am
mm
Dir  Spd
km/h
Gust
km/h
Spd
kts
Gust
kts
05/11:30pm 14.3 8.8 -2.1 32 6.7 SSE 17 26 9 14 1022.9 1022.5 0.0
05/11:00pm 14.8 8.7 -2.6 30 7.0 SSE 20 26 11 14 1022.9 1022.5 0.0
05/10:30pm 15.4 9.3 -2.5 29 7.3 SSE 20 26 11 14 1022.9 1022.5 0.0
05/10:00pm 16.0 9.1 -2.5 28 7.5 SSE 24 33 13 18 1022.8 1022.4 0.0
05/09:30pm 16.5 9.6 -2.5 27 7.8 S 24 33 13 18 1022.5 1022.1 0.0
05/09:00pm 16.6 10.5 -2.0 28 7.7 S 20 26 11 14 1022.4 1022.0 0.0
05/08:30pm 16.9 11.1 -1.7 28 7.8 S 19 26 10 14 1022.1 1021.7 0.0
05/08:00pm 17.3 12.2 -1.9 27 8.0 S 15 19 8 10 1021.9 1021.5 0.0
05/07:30pm 17.7 13.0 -1.5 27 8.2 SSE 13 15 7 8 1021.6 1021.2 0.0
05/07:00pm 18.9 13.5 -1.5 25 8.7 SSE 17 20 9 11 1021.4 1021.0 0.0
05/06:30pm 20.0 14.2 -1.7 23 9.4 S 19 24 10 13 1021.0 1020.6 0.0
05/06:00pm 21.0 14.6 -1.5 22 9.8 S 22 28 12 15 1020.7 1020.2 0.0
05/05:30pm 21.9 15.9 -1.4 21 10.3 SSE 20 26 11 14 1020.4 1019.9 0.0
05/05:00pm 22.3 16.4 -1.1 21 10.4 SE 20 32 11 17 1020.3 1019.8 0.0
05/04:30pm 22.4 16.9 0.3 23 10.1 SE 19 30 10 16 1020.2 1019.7 0.0
05/04:00pm 22.3 17.0 -0.4 22 10.2 SE 17 28 9 15 1020.5 1020.0 0.0
05/03:30pm 22.6 17.0 -0.2 22 10.4 SE 19 30 10 16 1020.5 1020.0 0.0
05/03:00pm 22.3 15.8 0.2 23 10.1 SSE 24 33 13 18 1020.9 1020.4 0.0
05/02:30pm 21.3 14.3 -0.6 23 9.8 SSE 26 35 14 19 1021.3 1020.9 0.0
05/02:00pm 21.5 15.1 0.7 25 9.5 SE 24 35 13 19 1021.8 1021.4 0.0
05/01:30pm 20.8 14.3 0.6 26 9.2 SE 24 41 13 22 1022.3 1021.9 0.0
05/01:00pm 20.4 14.0 0.8 27 8.9 SE 24 37 13 20 1022.7 1022.3 0.0
05/12:30pm 19.7 13.0 1.2 29 8.5 SE 26 39 14 21 1023.4 1023.0 0.0
05/12:00pm 18.5 12.1 1.1 31 7.8 SSE 24 35 13 19 1024.1 1023.7 0.0
05/11:30am 18.0 10.5 1.1 32 7.6 SSE 30 39 16 21 1024.7 1024.2 0.0
05/11:00am 17.7 9.8 1.2 33 7.4 SSE 32 39 17 21 1024.7 1024.2 0.0
05/10:30am 16.0 8.9 1.3 37 6.5 SSE 28 39 15 21 1024.7 1024.2 0.0
05/10:00am 15.8 8.7 1.5 38 6.3 SSE 28 41 15 22 1024.5 1024.0 0.0
05/09:30am 15.3 8.6 1.4 39 6.1 S 26 39 14 21 1024.5 1024.0 0.0
05/09:00am 14.7 8.4 1.6 41 5.8 S 24 32 13 17 1024.1 1023.7 0.0
05/08:30am 14.0 8.5 1.6 43 5.4 S 20 28 11 15 1023.6 1023.2 0.0
05/08:00am 13.8 8.8 1.5 43 5.4 S 17 20 9 11 1022.9 1022.5 0.0
05/07:30am 13.7 8.7 1.4 43 5.4 SSE 17 20 9 11 1022.4 1022.0 0.0
05/07:00am 13.7 8.6 1.0 42 5.5 SSE 17 24 9 13 1022.0 1021.6 0.0
05/06:30am 13.9 8.3 0.9 41 5.6 SSE 20 32 11 17 1022.0 1021.6 0.0
05/06:00am 14.2 8.7 0.8 40 5.8 SSE 19 26 10 14 1022.1 1021.7 0.0
05/05:30am 14.4 8.8 1.0 40 5.8 SSE 20 32 11 17 1022.1 1021.7 0.0
05/05:00am 14.6 8.6 0.8 39 6.0 SSE 22 28 12 15 1022.2 1021.8 0.0
05/04:30am 14.3 8.8 0.6 39 5.9 SSE 19 26 10 14 1022.1 1021.7 0.0
05/04:00am 14.2 8.4 0.1 38 6.0 SSE 20 28 11 15 1022.4 1022.0 0.0
05/03:30am 14.5 8.7 0.0 37 6.2 SSE 20 28 11 15 1022.5 1022.1 0.0
05/03:00am 15.2 9.0 -0.1 35 6.5 SSE 22 30 12 16 1022.9 1022.5 0.0
05/02:30am 15.4 9.6 -0.4 34 6.7 SSE 20 28 11 15 1022.9 1022.5 0.0
05/02:00am 15.3 9.0 -0.9 33 6.8 SSE 22 28 12 15 1023.0 1022.6 0.0
05/01:30am 15.0 9.7 -0.7 34 6.6 SSE 17 24 9 13 1023.2 1022.8 0.0
05/01:00am 14.5 9.5 -1.2 34 6.5 S 15 20 8 11 1023.6 1023.2 0.0
05/12:30am 14.7 9.7 -1.4 33 6.7 S 15 19 8 10 1023.8 1023.4 0.0
05/12:00am 14.8 9.7 -1.7 32 6.8 S 15 20 8 11 1024.3 1023.8 0.0
 
Date/Time
EST
Temp
°C
App
Temp
°C
Dew
Point
°C
Rel
Hum
%
Delta-T
°C
Wind Press
QNH
hPa
Press
MSL
hPa
Rain since
9am
mm
Dir  Spd
km/h
Gust
km/h
Spd
kts
Gust
kts
04/11:30pm 15.4 9.4 -1.6 31 7.1 SSE 20 28 11 15 1023.9 1023.5 0.0
04/11:00pm 15.8 9.3 -2.2 29 7.4 SSE 22 28 12 15 1024.0 1023.6 0.0
04/10:30pm 16.0 10.1 -2.5 28 7.6 SSE 19 26 10 14 1023.9 1023.5 0.0
04/10:00pm 16.7 10.1 -2.9 26 8.0 S 22 30 12 16 1023.9 1023.5 0.0
04/09:30pm 17.4 9.7 -2.8 25 8.3 S 28 35 15 19 1023.3 1022.9 0.0
04/09:00pm 17.6 10.3 -2.6 25 8.3 S 26 35 14 19 1023.3 1022.9 0.0
04/08:30pm 17.6 11.1 -2.6 25 8.4 S 22 30 12 16 1023.2 1022.8 0.0
04/08:00pm 18.4 12.8 -3.1 23 8.9 SSE 17 24 9 13 1022.9 1022.5 0.0
04/07:30pm 18.9 12.9 -3.3 22 9.2 SSE 19 24 10 13 1022.6 1022.2 0.0
04/07:00pm 19.6 13.4 -3.3 21 9.5 S 20 26 11 14 1022.1 1021.7 0.0
04/06:30pm 20.5 13.8 -3.9 19 10.1 SSE 22 32 12 17 1021.9 1021.5 0.0
04/06:00pm 21.2 12.9 -4.8 17 10.6 SSE 30 39 16 21 1021.9 1021.5 0.0
04/05:30pm 22.0 13.7 -4.9 16 11.1 SSE 30 39 16 21 1021.6 1021.2 0.0
04/05:00pm 22.3 14.0 -4.7 16 11.2 SSE 30 39 16 21 1021.6 1021.2 0.0
04/04:30pm 22.9 15.1 -4.2 16 11.4 S 28 41 15 22 1021.4 1021.0 0.0
04/04:00pm 23.4 16.0 -3.8 16 11.6 SSE 26 37 14 20 1021.4 1021.0 0.0
04/03:30pm 23.3 14.8 -3.1 17 11.4 S 32 39 17 21 1021.4 1021.0 0.0
04/03:00pm 23.1 15.5 -2.5 18 11.1 SSE 28 39 15 21 1021.5 1021.1 0.0
04/02:30pm 23.0 15.3 -2.6 18 11.2 SSE 28 41 15 22 1021.8 1021.4 0.0
04/02:00pm 22.3 14.3 -2.4 19 10.7 SSE 30 41 16 22 1022.4 1022.0 0.0
04/01:30pm 21.9 14.7 -2.0 20 10.4 SSE 26 35 14 19 1023.1 1022.7 0.0
04/01:00pm 22.3 15.1 -1.7 20 10.5 SSE 26 43 14 23 1023.9 1023.5 0.0
04/12:30pm 20.5 13.3 -1.9 22 9.7 SSE 26 39 14 21 1024.8 1024.4 0.0
04/12:00pm 20.2 12.3 -1.6 23 9.4 SE 30 41 16 22 1025.1 1024.7 0.0
04/11:30am 19.5 12.2 0.0 27 8.7 SSE 28 37 15 20 1025.4 1025.0 0.0
04/11:00am 17.7 9.9 -0.5 29 7.8 SSE 30 39 16 21 1025.8 1025.4 0.0
04/10:30am 17.1 9.4 -0.1 31 7.5 SE 30 39 16 21 1026.0 1025.6 0.0
04/10:00am 15.7 7.4 -0.1 34 6.7 SSE 33 46 18 25 1026.0 1025.6 0.0
04/09:45am 15.4 6.8 0.0 35 6.6 SSE 35 50 19 27 1026.0 1025.6 0.0
04/09:30am 15.2 8.7 0.6 37 6.3 SSE 24 32 13 17 1025.9 1025.5 0.0
04/09:00am 13.3 6.9 0.7 42 5.4 SSE 24 30 13 16 1025.7 1025.3 0.0
04/08:30am 11.9 5.5 1.0 47 4.6 S 24 30 13 16 1025.3 1024.9 0.0
04/08:00am 11.0 5.5 0.7 49 4.3 S 19 24 10 13 1025.0 1024.6 0.0
04/07:30am 10.9 5.2 0.6 49 4.3 S 20 26 11 14 1024.7 1024.2 0.0
04/07:00am 11.3 5.6 0.4 47 4.5 S 20 26 11 14 1024.5 1024.0 0.0
04/06:30am 11.5 5.8 0.3 46 4.7 S 20 30 11 16 1024.3 1023.8 0.0

Other formats

Comma delimited format used in spreadsheet applications
http://www.bom.gov.au/fwo/IDQ60801/IDQ60801.94255.axf

JavaScript Object Notation format (JSON) in row-major order
http://www.bom.gov.au/fwo/IDQ60801/IDQ60801.94255.json

Data quality

Most of these data are generated automatically and are frequently updated. Quality checks on data are not normally performed. It is possible for incorrect values to appear. Refer to information at About Latest Weather Observations and please check the disclaimer before using these data.